Falcon Express — C6XB9 — position and weather

sailwx.info

Track history (hours):
 
Tides and Currents Weather Stations Pressure Air Temp Water Temp Dewpoint Dewpoint Depression Visibility Wind Speed Wind Dir Waves Ship Positions

Falcon Express

Last reported at 2017-Nov-11 14:11 UTC. Time now 2017-Nov-22 18:06 UTC.
Position N 23°43' W 018°58'.
Warning: this ship's position is 11 days out of date.

Length 244 m; draft 8 m.

Type: Ship. MMSI: 311005200.

Date/timePositionNaut miles runAvg speedWind from/ knotsBaromVisibWave heightAir tempDewpointWater temp
2017-Nov-11 14:11N 23°43' W 018°58'312.9
2017-Nov-11 14:00N 23°45' W 018°57'1713.2
2017-Nov-11 12:43N 24°00' W 018°49'313.3
2017-Nov-11 12:30N 24°03' W 018°47'713.3
2017-Nov-11 12:00N 24°09' W 018°44'12213.0
2017-Nov-11 02:35N 25°56' W 017°39'16812.7
2017-Nov-10 13:21N 28°20' W 016°02'513.1
2017-Nov-10 13:00N 28°24' W 015°58'613.1
2017-Nov-10 12:30N 28°29' W 015°54'612.8
2017-Nov-10 12:00N 28°34' W 015°49'612.6
2017-Nov-10 11:30N 28°38' W 015°44'612.7
2017-Nov-10 11:00N 28°43' W 015°40'612.6
2017-Nov-10 10:30N 28°48' W 015°35'612.7
2017-Nov-10 10:00N 28°53' W 015°31'612.7
2017-Nov-10 09:30N 28°58' W 015°26'712.5
2017-Nov-10 08:58N 29°04' W 015°23'612.7
2017-Nov-10 08:30N 29°10' W 015°21'712.8
2017-Nov-10 07:57N 29°17' W 015°19'814.1
2017-Nov-10 07:23N 29°24' W 015°16'513.4
2017-Nov-10 07:00N 29°29' W 015°15'712.6
2017-Nov-10 06:29N 29°36' W 015°13'612.6
2017-Nov-10 06:00N 29°41' W 015°11'612.4
2017-Nov-10 05:30N 29°47' W 015°09'612.3
2017-Nov-10 05:00N 29°53' W 015°07'612.4
2017-Nov-10 04:30N 29°59' W 015°05'612.6
2017-Nov-10 04:00N 30°05' W 015°03'612.7
2017-Nov-10 03:30N 30°12' W 015°01'712.6
2017-Nov-10 02:58N 30°18' W 014°59'712.2
2017-Nov-10 02:25N 30°25' W 014°57'512.2
2017-Nov-10 02:00N 30°29' W 014°55'612.2
2017-Nov-10 01:29N 30°35' W 014°53'612.5
2017-Nov-10 01:00N 30°41' W 014°51'612.4
2017-Nov-10 00:29N 30°47' W 014°49'712.5
2017-Nov-09 23:58N 30°54' W 014°47'712.7
2017-Nov-09 23:23N 31°01' W 014°45'2912.7
2017-Nov-09 21:06N 31°29' W 014°35'512.8
2017-Nov-09 20:42N 31°34' W 014°34'212.7
2017-Nov-09 20:30N 31°36' W 014°33'612.6
2017-Nov-09 19:59N 31°42' W 014°31'612.4
2017-Nov-09 19:30N 31°48' W 014°29'812.2
2017-Nov-09 18:53N 31°55' W 014°27'512.4
2017-Nov-09 18:30N 31°60' W 014°25'712.6
2017-Nov-09 17:55N 32°07' W 014°23'  
2017-Nov-05 22:33N 49°38' W 004°05'1113.3
2017-Nov-05 21:43N 49°44' W 003°51'312.8
2017-Nov-05 21:30N 49°46' W 003°47'612.3
2017-Nov-05 21:00N 49°49' W 003°39'612.4
2017-Nov-05 20:30N 49°52' W 003°31'611.8
2017-Nov-05 20:00N 49°54' W 003°22'611.4
2017-Nov-05 19:30N 49°55' W 003°14'611.1
2017-Nov-05 19:00N 49°56' W 003°05'611.0
2017-Nov-05 18:30N 49°58' W 002°57'611.2
2017-Nov-05 18:00N 50°00' W 002°49'611.9
2017-Nov-05 17:30N 50°02' W 002°40'612.7
2017-Nov-05 17:00N 50°03' W 002°31'1714.7
2017-Nov-05 15:51N 50°08' W 002°05'616.5
2017-Nov-05 15:30N 50°09' W 001°57'817.0
2017-Nov-05 15:01N 50°12' W 001°44'917.2
2017-Nov-05 14:31N 50°14' W 001°31'917.0
2017-Nov-05 14:00N 50°16' W 001°18'816.8
2017-Nov-05 13:30N 50°18' W 001°05'1815.2
2017-Nov-05 12:21N 50°23' W 000°39'613.9
2017-Nov-05 11:55N 50°25' W 000°30'513.2
2017-Nov-05 11:31N 50°26' W 000°21'612.6
2017-Nov-05 11:00N 50°27' W 000°12'611.9
2017-Nov-05 10:30N 50°29' W 000°03'611.3
2017-Nov-05 10:00N 50°31' E 000°06'511.0
2017-Nov-05 09:31N 50°32' E 000°14'510.7
2017-Nov-05 09:00N 50°34' E 000°22'511.0
2017-Nov-05 08:30N 50°35' E 000°30'611.7
2017-Nov-05 08:00N 50°38' E 000°39'612.9
2017-Nov-05 07:31N 50°41' E 000°47'714.2
2017-Nov-05 07:00N 50°45' E 000°57'815.2
2017-Nov-05 06:30N 50°49' E 001°07'815.5
2017-Nov-05 06:00N 50°53' E 001°17'816.0
2017-Nov-05 05:30N 50°59' E 001°25'815.1
2017-Nov-05 05:00N 51°05' E 001°34'714.2
2017-Nov-05 04:30N 51°10' E 001°41'713.5
2017-Nov-05 04:01N 51°15' E 001°48'612.5
2017-Nov-05 03:30N 51°20' E 001°54'612.1
2017-Nov-05 03:00N 51°25' E 002°00'612.8
2017-Nov-05 02:31N 51°23' E 002°10'612.3
2017-Nov-05 02:00N 51°21' E 002°19'611.2
2017-Nov-05 01:30N 51°22' E 002°27'611.4
2017-Nov-05 01:00N 51°23' E 002°37'5 9.2
2017-Nov-05 00:29N 51°23' E 002°44'510.7
2017-Nov-05 00:00N 51°25' E 002°52'612.0
2017-Nov-04 23:30N 51°25' E 003°01'611.8
2017-Nov-04 23:00N 51°24' E 003°11'612.4
2017-Nov-04 22:31N 51°24' E 003°20'612.3
2017-Nov-04 22:01N 51°25' E 003°30'4 8.9
2017-Nov-04 21:31N 51°26' E 003°37'5 9.4
2017-Nov-04 21:00N 51°23' E 003°43'612.5
2017-Nov-04 20:31N 51°21' E 003°52'713.2
2017-Nov-04 20:00N 51°26' E 003°59'611.1
2017-Nov-04 19:30N 51°22' E 004°05'5 9.7
2017-Nov-04 19:01N 51°23' E 004°13'3 7.0
2017-Nov-04 18:31N 51°21' E 004°17'0 0.0
2017-Nov-04 18:00N 51°21' E 004°17'0 0.0
2017-Nov-04 17:30N 51°21' E 004°17'0 0.7
2017-Nov-04 17:00N 51°21' E 004°18'1 2.2
2017-Nov-04 16:31N 51°20' E 004°18'0 0.3
2017-Nov-04 15:55N 51°20' E 004°18'0 0.0
2017-Nov-04 15:28N 51°20' E 004°18'0 0.0
2017-Nov-04 14:58N 51°20' E 004°18'0 0.0
2017-Nov-04 14:28N 51°20' E 004°18'0 0.0
2017-Nov-04 13:58N 51°20' E 004°18'0 0.0
2017-Nov-04 13:28N 51°20' E 004°18'0 0.0
2017-Nov-04 12:58N 51°20' E 004°18'0 0.0
2017-Nov-04 12:25N 51°20' E 004°18'0 0.0
2017-Nov-04 11:58N 51°20' E 004°18'0 0.0
2017-Nov-04 11:28N 51°20' E 004°18'0 0.0
2017-Nov-04 10:58N 51°20' E 004°18'0 0.0
2017-Nov-04 10:28N 51°20' E 004°18'0 0.0
2017-Nov-04 09:58N 51°20' E 004°18'0 0.0
2017-Nov-04 09:28N 51°20' E 004°18'0 0.0
2017-Nov-04 08:58N 51°20' E 004°18'0 0.0
2017-Nov-04 08:25N 51°20' E 004°18'0 0.0
2017-Nov-04 07:58N 51°20' E 004°18'0 0.0
2017-Nov-04 07:28N 51°20' E 004°18'0 0.0
2017-Nov-04 06:52N 51°20' E 004°18'0 0.0
2017-Nov-04 06:28N 51°20' E 004°18'0 0.0
2017-Nov-04 05:58N 51°20' E 004°18'0 0.0
2017-Nov-04 05:28N 51°20' E 004°18'0 0.0
2017-Nov-04 04:58N 51°20' E 004°18'0 0.0
2017-Nov-04 04:25N 51°20' E 004°18'0 0.0
2017-Nov-04 03:58N 51°20' E 004°18'0 0.0
2017-Nov-04 03:28N 51°20' E 004°18'0 0.0
2017-Nov-04 02:58N 51°20' E 004°18'0 0.0
2017-Nov-04 02:28N 51°20' E 004°18'0 0.0
2017-Nov-04 01:58N 51°20' E 004°18'0 0.0
2017-Nov-04 01:25N 51°20' E 004°18'0 0.0
2017-Nov-04 00:58N 51°20' E 004°18'0 0.0
2017-Nov-04 00:28N 51°20' E 004°18'0 0.0
2017-Nov-03 23:58N 51°20' E 004°18'0 0.0
2017-Nov-03 23:28N 51°20' E 004°18'0 0.0
2017-Nov-03 22:58N 51°20' E 004°18'0 0.0
2017-Nov-03 22:28N 51°20' E 004°18'0 0.0
2017-Nov-03 21:58N 51°20' E 004°18'0 0.0
2017-Nov-03 21:28N 51°20' E 004°18'0 0.0
2017-Nov-03 20:58N 51°20' E 004°18'0 0.0
2017-Nov-03 20:28N 51°20' E 004°18'0 0.0
2017-Nov-03 19:58N 51°20' E 004°18'0 0.0
2017-Nov-03 19:22N 51°20' E 004°18'0 0.0
2017-Nov-03 18:58N 51°20' E 004°18'0 0.0
2017-Nov-03 18:28N 51°20' E 004°18'0 0.0
2017-Nov-03 17:58N 51°20' E 004°18'0 0.0
2017-Nov-03 17:28N 51°20' E 004°18'0 0.0
2017-Nov-03 16:58N 51°20' E 004°18'0 0.0
2017-Nov-03 16:28N 51°20' E 004°18'0 0.0
2017-Nov-03 15:58N 51°20' E 004°18'0 0.0
2017-Nov-03 15:25N 51°20' E 004°18'0 0.0
2017-Nov-03 14:58N 51°20' E 004°18'0 0.0
2017-Nov-03 14:28N 51°20' E 004°18'0 0.0
2017-Nov-03 13:55N 51°20' E 004°18'0 0.0
2017-Nov-03 13:28N 51°20' E 004°18'0 0.0
2017-Nov-03 12:55N 51°20' E 004°18'0 0.0
2017-Nov-03 12:28N 51°20' E 004°18'0 0.0
2017-Nov-03 11:58N 51°20' E 004°18'0 0.0
2017-Nov-03 11:25N 51°20' E 004°18'0 0.0
2017-Nov-03 10:58N 51°20' E 004°18'0 0.0
2017-Nov-03 10:28N 51°20' E 004°18'0 0.0
2017-Nov-03 09:58N 51°20' E 004°18'0 0.0
2017-Nov-03 09:28N 51°20' E 004°18'0 0.0
2017-Nov-03 08:58N 51°20' E 004°18'0 0.0
2017-Nov-03 08:28N 51°20' E 004°18'0 0.0
2017-Nov-03 07:55N 51°20' E 004°18'0 0.0
2017-Nov-03 07:28N 51°20' E 004°18'0 0.0
2017-Nov-03 06:55N 51°20' E 004°18'0 0.0
2017-Nov-03 06:28N 51°20' E 004°18'0 0.0
2017-Nov-03 05:55N 51°20' E 004°18'0 0.0
2017-Nov-03 05:25N 51°20' E 004°18'0 0.0
2017-Nov-03 04:55N 51°20' E 004°18'0 0.0
2017-Nov-03 04:28N 51°20' E 004°18'0 0.0
2017-Nov-03 03:55N 51°20' E 004°18'0 0.0
2017-Nov-03 03:28N 51°20' E 004°18'0 0.0
2017-Nov-03 02:58N 51°20' E 004°18'0 0.0
2017-Nov-03 02:28N 51°20' E 004°18'0 0.0
2017-Nov-03 01:55N 51°20' E 004°18'0 0.0
2017-Nov-03 01:28N 51°20' E 004°18'0 0.0
2017-Nov-03 00:55N 51°20' E 004°18'0 0.0
2017-Nov-03 00:22N 51°20' E 004°18'0 0.0
2017-Nov-02 23:58N 51°20' E 004°18'0 0.0
2017-Nov-02 23:25N 51°20' E 004°18'0 0.0
2017-Nov-02 22:55N 51°20' E 004°18'0 0.0
2017-Nov-02 22:28N 51°20' E 004°18'0 0.0
2017-Nov-02 21:58N 51°20' E 004°18'0 0.0
2017-Nov-02 21:28N 51°20' E 004°18'0 0.0
2017-Nov-02 20:58N 51°20' E 004°18'0 0.0
2017-Nov-02 20:28N 51°20' E 004°18'0 0.0
2017-Nov-02 19:58N 51°20' E 004°18'0 0.0
2017-Nov-02 19:28N 51°20' E 004°18'0 0.0
2017-Nov-02 18:55N 51°20' E 004°18'0 0.0
2017-Nov-02 18:25N 51°20' E 004°18'0 0.0
2017-Nov-02 17:55N 51°20' E 004°18'0 0.0
2017-Nov-02 17:25N 51°20' E 004°18'0 0.0
2017-Nov-02 16:58N 51°20' E 004°18'0 0.0
2017-Nov-02 16:28N 51°20' E 004°18'0 0.0
2017-Nov-02 15:58N 51°20' E 004°18'0 0.0
2017-Nov-02 15:28N 51°20' E 004°18'0 0.0
2017-Nov-02 14:58N 51°20' E 004°18'0 0.0
2017-Nov-02 14:28N 51°20' E 004°18'0 0.0
2017-Nov-02 13:58N 51°20' E 004°18'0 0.0
2017-Nov-02 13:25N 51°20' E 004°18'0 0.0
2017-Nov-02 12:55N 51°20' E 004°18'0 0.0
2017-Nov-02 12:28N 51°20' E 004°18'0 0.0
2017-Nov-02 11:52N 51°20' E 004°18'0 0.0
2017-Nov-02 11:28N 51°20' E 004°18'0 0.0
2017-Nov-02 10:58N 51°20' E 004°18'0 0.0
2017-Nov-02 10:31N 51°20' E 004°18'0 0.0
2017-Nov-02 10:01N 51°20' E 004°18'1 1.7
2017-Nov-02 09:31N 51°19' E 004°19'2 4.7
2017-Nov-02 09:01N 51°17' E 004°21'1 2.7
2017-Nov-02 08:29N 51°16' E 004°22'0 0.0
2017-Nov-02 07:59N 51°16' E 004°22'0 0.0
2017-Nov-02 07:29N 51°16' E 004°22'0 0.0
2017-Nov-02 06:59N 51°16' E 004°22'0 0.0
2017-Nov-02 06:29N 51°16' E 004°22'0 0.0
2017-Nov-02 05:59N 51°16' E 004°22'0 0.0
2017-Nov-02 05:29N 51°16' E 004°22'0 0.0
2017-Nov-02 04:59N 51°16' E 004°22'0 0.0
2017-Nov-02 04:29N 51°16' E 004°22'0 0.0
2017-Nov-02 03:59N 51°16' E 004°22'0 0.0
2017-Nov-02 03:29N 51°16' E 004°22'0 0.0
2017-Nov-02 02:59N 51°16' E 004°22'0 0.0
2017-Nov-02 02:29N 51°16' E 004°22'0 0.0
2017-Nov-02 01:59N 51°16' E 004°22'0 0.0
2017-Nov-02 01:29N 51°16' E 004°22'0 0.0
2017-Nov-02 00:59N 51°16' E 004°22'0 0.0
2017-Nov-02 00:29N 51°16' E 004°22'0 1.0
2017-Nov-01 23:59N 51°16' E 004°21'1 2.9
2017-Nov-01 23:30N 51°17' E 004°21'2 3.6
2017-Nov-01 22:53N 51°19' E 004°19'0 0.0
2017-Nov-01 22:29N 51°19' E 004°19'0 0.0
2017-Nov-01 21:59N 51°19' E 004°19'0 0.0
2017-Nov-01 21:29N 51°19' E 004°19'0 0.0
2017-Nov-01 20:59N 51°19' E 004°19'0 0.0
2017-Nov-01 20:29N 51°19' E 004°19'0 0.0
2017-Nov-01 19:59N 51°19' E 004°19'0 0.0
2017-Nov-01 19:29N 51°19' E 004°19'0 0.0
2017-Nov-01 18:59N 51°19' E 004°19'0 0.0
2017-Nov-01 18:29N 51°19' E 004°19'  
Track history (hours):
 
Tides and Currents Weather Stations Pressure Air Temp Water Temp Dewpoint Dewpoint Depression Visibility Wind Speed Wind Dir Waves Ship Positions

Falcon Express

Last reported at 2017-Nov-11 14:11 UTC. Time now 2017-Nov-22 18:07 UTC.
Position N 23°43' W 018°58'.
Warning: this ship's position is 11 days out of date.

Length 244 m; draft 8 m.

Type: Ship. MMSI: 311005200.

Date/timePositionNaut miles runAvg speedWind from/ knotsBaromVisibWave heightAir tempDewpointWater temp
2017-Nov-11 14:11N 23°43' W 018°58'312.9
2017-Nov-11 14:00N 23°45' W 018°57'1713.2
2017-Nov-11 12:43N 24°00' W 018°49'313.3
2017-Nov-11 12:30N 24°03' W 018°47'713.3
2017-Nov-11 12:00N 24°09' W 018°44'12213.0
2017-Nov-11 02:35N 25°56' W 017°39'16812.7
2017-Nov-10 13:21N 28°20' W 016°02'513.1
2017-Nov-10 13:00N 28°24' W 015°58'613.1
2017-Nov-10 12:30N 28°29' W 015°54'612.8
2017-Nov-10 12:00N 28°34' W 015°49'612.6
2017-Nov-10 11:30N 28°38' W 015°44'612.7
2017-Nov-10 11:00N 28°43' W 015°40'612.6
2017-Nov-10 10:30N 28°48' W 015°35'612.7
2017-Nov-10 10:00N 28°53' W 015°31'612.7
2017-Nov-10 09:30N 28°58' W 015°26'712.5
2017-Nov-10 08:58N 29°04' W 015°23'612.7
2017-Nov-10 08:30N 29°10' W 015°21'712.8
2017-Nov-10 07:57N 29°17' W 015°19'814.1
2017-Nov-10 07:23N 29°24' W 015°16'513.4
2017-Nov-10 07:00N 29°29' W 015°15'712.6
2017-Nov-10 06:29N 29°36' W 015°13'612.6
2017-Nov-10 06:00N 29°41' W 015°11'612.4
2017-Nov-10 05:30N 29°47' W 015°09'612.3
2017-Nov-10 05:00N 29°53' W 015°07'612.4
2017-Nov-10 04:30N 29°59' W 015°05'612.6
2017-Nov-10 04:00N 30°05' W 015°03'612.7
2017-Nov-10 03:30N 30°12' W 015°01'712.6
2017-Nov-10 02:58N 30°18' W 014°59'712.2
2017-Nov-10 02:25N 30°25' W 014°57'512.2
2017-Nov-10 02:00N 30°29' W 014°55'612.2
2017-Nov-10 01:29N 30°35' W 014°53'612.5
2017-Nov-10 01:00N 30°41' W 014°51'612.4
2017-Nov-10 00:29N 30°47' W 014°49'712.5
2017-Nov-09 23:58N 30°54' W 014°47'712.7
2017-Nov-09 23:23N 31°01' W 014°45'2912.7
2017-Nov-09 21:06N 31°29' W 014°35'512.8
2017-Nov-09 20:42N 31°34' W 014°34'212.7
2017-Nov-09 20:30N 31°36' W 014°33'612.6
2017-Nov-09 19:59N 31°42' W 014°31'612.4
2017-Nov-09 19:30N 31°48' W 014°29'812.2
2017-Nov-09 18:53N 31°55' W 014°27'512.4
2017-Nov-09 18:30N 31°60' W 014°25'712.6
2017-Nov-09 17:55N 32°07' W 014°23'  
2017-Nov-05 22:33N 49°38' W 004°05'1113.3
2017-Nov-05 21:43N 49°44' W 003°51'312.8
2017-Nov-05 21:30N 49°46' W 003°47'612.3
2017-Nov-05 21:00N 49°49' W 003°39'612.4
2017-Nov-05 20:30N 49°52' W 003°31'611.8
2017-Nov-05 20:00N 49°54' W 003°22'611.4
2017-Nov-05 19:30N 49°55' W 003°14'611.1
2017-Nov-05 19:00N 49°56' W 003°05'611.0
2017-Nov-05 18:30N 49°58' W 002°57'611.2
2017-Nov-05 18:00N 50°00' W 002°49'611.9
2017-Nov-05 17:30N 50°02' W 002°40'612.7
2017-Nov-05 17:00N 50°03' W 002°31'1714.7
2017-Nov-05 15:51N 50°08' W 002°05'616.5
2017-Nov-05 15:30N 50°09' W 001°57'817.0
2017-Nov-05 15:01N 50°12' W 001°44'917.2
2017-Nov-05 14:31N 50°14' W 001°31'917.0
2017-Nov-05 14:00N 50°16' W 001°18'816.8
2017-Nov-05 13:30N 50°18' W 001°05'1815.2
2017-Nov-05 12:21N 50°23' W 000°39'613.9
2017-Nov-05 11:55N 50°25' W 000°30'513.2
2017-Nov-05 11:31N 50°26' W 000°21'612.6
2017-Nov-05 11:00N 50°27' W 000°12'611.9
2017-Nov-05 10:30N 50°29' W 000°03'611.3
2017-Nov-05 10:00N 50°31' E 000°06'511.0
2017-Nov-05 09:31N 50°32' E 000°14'510.7
2017-Nov-05 09:00N 50°34' E 000°22'511.0
2017-Nov-05 08:30N 50°35' E 000°30'611.7
2017-Nov-05 08:00N 50°38' E 000°39'612.9
2017-Nov-05 07:31N 50°41' E 000°47'714.2
2017-Nov-05 07:00N 50°45' E 000°57'815.2
2017-Nov-05 06:30N 50°49' E 001°07'815.5
2017-Nov-05 06:00N 50°53' E 001°17'816.0
2017-Nov-05 05:30N 50°59' E 001°25'815.1
2017-Nov-05 05:00N 51°05' E 001°34'714.2
2017-Nov-05 04:30N 51°10' E 001°41'713.5
2017-Nov-05 04:01N 51°15' E 001°48'612.5
2017-Nov-05 03:30N 51°20' E 001°54'612.1
2017-Nov-05 03:00N 51°25' E 002°00'612.8
2017-Nov-05 02:31N 51°23' E 002°10'612.3
2017-Nov-05 02:00N 51°21' E 002°19'611.2
2017-Nov-05 01:30N 51°22' E 002°27'611.4
2017-Nov-05 01:00N 51°23' E 002°37'5 9.2
2017-Nov-05 00:29N 51°23' E 002°44'510.7
2017-Nov-05 00:00N 51°25' E 002°52'612.0
2017-Nov-04 23:30N 51°25' E 003°01'611.8
2017-Nov-04 23:00N 51°24' E 003°11'612.4
2017-Nov-04 22:31N 51°24' E 003°20'612.3
2017-Nov-04 22:01N 51°25' E 003°30'4 8.9
2017-Nov-04 21:31N 51°26' E 003°37'5 9.4
2017-Nov-04 21:00N 51°23' E 003°43'612.5
2017-Nov-04 20:31N 51°21' E 003°52'713.2
2017-Nov-04 20:00N 51°26' E 003°59'611.1
2017-Nov-04 19:30N 51°22' E 004°05'5 9.7
2017-Nov-04 19:01N 51°23' E 004°13'3 7.0
2017-Nov-04 18:31N 51°21' E 004°17'0 0.0
2017-Nov-04 18:00N 51°21' E 004°17'0 0.0
2017-Nov-04 17:30N 51°21' E 004°17'0 0.7
2017-Nov-04 17:00N 51°21' E 004°18'1 2.2
2017-Nov-04 16:31N 51°20' E 004°18'0 0.3
2017-Nov-04 15:55N 51°20' E 004°18'0 0.0
2017-Nov-04 15:28N 51°20' E 004°18'0 0.0
2017-Nov-04 14:58N 51°20' E 004°18'0 0.0
2017-Nov-04 14:28N 51°20' E 004°18'0 0.0
2017-Nov-04 13:58N 51°20' E 004°18'0 0.0
2017-Nov-04 13:28N 51°20' E 004°18'0 0.0
2017-Nov-04 12:58N 51°20' E 004°18'0 0.0
2017-Nov-04 12:25N 51°20' E 004°18'0 0.0
2017-Nov-04 11:58N 51°20' E 004°18'0 0.0
2017-Nov-04 11:28N 51°20' E 004°18'0 0.0
2017-Nov-04 10:58N 51°20' E 004°18'0 0.0
2017-Nov-04 10:28N 51°20' E 004°18'0 0.0
2017-Nov-04 09:58N 51°20' E 004°18'0 0.0
2017-Nov-04 09:28N 51°20' E 004°18'0 0.0
2017-Nov-04 08:58N 51°20' E 004°18'0 0.0
2017-Nov-04 08:25N 51°20' E 004°18'0 0.0
2017-Nov-04 07:58N 51°20' E 004°18'0 0.0
2017-Nov-04 07:28N 51°20' E 004°18'0 0.0
2017-Nov-04 06:52N 51°20' E 004°18'0 0.0
2017-Nov-04 06:28N 51°20' E 004°18'0 0.0
2017-Nov-04 05:58N 51°20' E 004°18'0 0.0
2017-Nov-04 05:28N 51°20' E 004°18'0 0.0
2017-Nov-04 04:58N 51°20' E 004°18'0 0.0
2017-Nov-04 04:25N 51°20' E 004°18'0 0.0
2017-Nov-04 03:58N 51°20' E 004°18'0 0.0
2017-Nov-04 03:28N 51°20' E 004°18'0 0.0
2017-Nov-04 02:58N 51°20' E 004°18'0 0.0
2017-Nov-04 02:28N 51°20' E 004°18'0 0.0
2017-Nov-04 01:58N 51°20' E 004°18'0 0.0
2017-Nov-04 01:25N 51°20' E 004°18'0 0.0
2017-Nov-04 00:58N 51°20' E 004°18'0 0.0
2017-Nov-04 00:28N 51°20' E 004°18'0 0.0
2017-Nov-03 23:58N 51°20' E 004°18'0 0.0
2017-Nov-03 23:28N 51°20' E 004°18'0 0.0
2017-Nov-03 22:58N 51°20' E 004°18'0 0.0
2017-Nov-03 22:28N 51°20' E 004°18'0 0.0
2017-Nov-03 21:58N 51°20' E 004°18'0 0.0
2017-Nov-03 21:28N 51°20' E 004°18'0 0.0
2017-Nov-03 20:58N 51°20' E 004°18'0 0.0
2017-Nov-03 20:28N 51°20' E 004°18'0 0.0
2017-Nov-03 19:58N 51°20' E 004°18'0 0.0
2017-Nov-03 19:22N 51°20' E 004°18'0 0.0
2017-Nov-03 18:58N 51°20' E 004°18'0 0.0
2017-Nov-03 18:28N 51°20' E 004°18'0 0.0
2017-Nov-03 17:58N 51°20' E 004°18'0 0.0
2017-Nov-03 17:28N 51°20' E 004°18'0 0.0
2017-Nov-03 16:58N 51°20' E 004°18'0 0.0
2017-Nov-03 16:28N 51°20' E 004°18'0 0.0
2017-Nov-03 15:58N 51°20' E 004°18'0 0.0
2017-Nov-03 15:25N 51°20' E 004°18'0 0.0
2017-Nov-03 14:58N 51°20' E 004°18'0 0.0
2017-Nov-03 14:28N 51°20' E 004°18'0 0.0
2017-Nov-03 13:55N 51°20' E 004°18'0 0.0
2017-Nov-03 13:28N 51°20' E 004°18'0 0.0
2017-Nov-03 12:55N 51°20' E 004°18'0 0.0
2017-Nov-03 12:28N 51°20' E 004°18'0 0.0
2017-Nov-03 11:58N 51°20' E 004°18'0 0.0
2017-Nov-03 11:25N 51°20' E 004°18'0 0.0
2017-Nov-03 10:58N 51°20' E 004°18'0 0.0
2017-Nov-03 10:28N 51°20' E 004°18'0 0.0
2017-Nov-03 09:58N 51°20' E 004°18'0 0.0
2017-Nov-03 09:28N 51°20' E 004°18'0 0.0
2017-Nov-03 08:58N 51°20' E 004°18'0 0.0
2017-Nov-03 08:28N 51°20' E 004°18'0 0.0
2017-Nov-03 07:55N 51°20' E 004°18'0 0.0
2017-Nov-03 07:28N 51°20' E 004°18'0 0.0
2017-Nov-03 06:55N 51°20' E 004°18'0 0.0
2017-Nov-03 06:28N 51°20' E 004°18'0 0.0
2017-Nov-03 05:55N 51°20' E 004°18'0 0.0
2017-Nov-03 05:25N 51°20' E 004°18'0 0.0
2017-Nov-03 04:55N 51°20' E 004°18'0 0.0
2017-Nov-03 04:28N 51°20' E 004°18'0 0.0
2017-Nov-03 03:55N 51°20' E 004°18'0 0.0
2017-Nov-03 03:28N 51°20' E 004°18'0 0.0
2017-Nov-03 02:58N 51°20' E 004°18'0 0.0
2017-Nov-03 02:28N 51°20' E 004°18'0 0.0
2017-Nov-03 01:55N 51°20' E 004°18'0 0.0
2017-Nov-03 01:28N 51°20' E 004°18'0 0.0
2017-Nov-03 00:55N 51°20' E 004°18'0 0.0
2017-Nov-03 00:22N 51°20' E 004°18'0 0.0
2017-Nov-02 23:58N 51°20' E 004°18'0 0.0
2017-Nov-02 23:25N 51°20' E 004°18'0 0.0
2017-Nov-02 22:55N 51°20' E 004°18'0 0.0
2017-Nov-02 22:28N 51°20' E 004°18'0 0.0
2017-Nov-02 21:58N 51°20' E 004°18'0 0.0
2017-Nov-02 21:28N 51°20' E 004°18'0 0.0
2017-Nov-02 20:58N 51°20' E 004°18'0 0.0
2017-Nov-02 20:28N 51°20' E 004°18'0 0.0
2017-Nov-02 19:58N 51°20' E 004°18'0 0.0
2017-Nov-02 19:28N 51°20' E 004°18'0 0.0
2017-Nov-02 18:55N 51°20' E 004°18'0 0.0
2017-Nov-02 18:25N 51°20' E 004°18'0 0.0
2017-Nov-02 17:55N 51°20' E 004°18'0 0.0
2017-Nov-02 17:25N 51°20' E 004°18'0 0.0
2017-Nov-02 16:58N 51°20' E 004°18'0 0.0
2017-Nov-02 16:28N 51°20' E 004°18'0 0.0
2017-Nov-02 15:58N 51°20' E 004°18'0 0.0
2017-Nov-02 15:28N 51°20' E 004°18'0 0.0
2017-Nov-02 14:58N 51°20' E 004°18'0 0.0
2017-Nov-02 14:28N 51°20' E 004°18'0 0.0
2017-Nov-02 13:58N 51°20' E 004°18'0 0.0
2017-Nov-02 13:25N 51°20' E 004°18'0 0.0
2017-Nov-02 12:55N 51°20' E 004°18'0 0.0
2017-Nov-02 12:28N 51°20' E 004°18'0 0.0
2017-Nov-02 11:52N 51°20' E 004°18'0 0.0
2017-Nov-02 11:28N 51°20' E 004°18'0 0.0
2017-Nov-02 10:58N 51°20' E 004°18'0 0.0
2017-Nov-02 10:31N 51°20' E 004°18'0 0.0
2017-Nov-02 10:01N 51°20' E 004°18'1 1.7
2017-Nov-02 09:31N 51°19' E 004°19'2 4.7
2017-Nov-02 09:01N 51°17' E 004°21'1 2.7
2017-Nov-02 08:29N 51°16' E 004°22'0 0.0
2017-Nov-02 07:59N 51°16' E 004°22'0 0.0
2017-Nov-02 07:29N 51°16' E 004°22'0 0.0
2017-Nov-02 06:59N 51°16' E 004°22'0 0.0
2017-Nov-02 06:29N 51°16' E 004°22'0 0.0
2017-Nov-02 05:59N 51°16' E 004°22'0 0.0
2017-Nov-02 05:29N 51°16' E 004°22'0 0.0
2017-Nov-02 04:59N 51°16' E 004°22'0 0.0
2017-Nov-02 04:29N 51°16' E 004°22'0 0.0
2017-Nov-02 03:59N 51°16' E 004°22'0 0.0
2017-Nov-02 03:29N 51°16' E 004°22'0 0.0
2017-Nov-02 02:59N 51°16' E 004°22'0 0.0
2017-Nov-02 02:29N 51°16' E 004°22'0 0.0
2017-Nov-02 01:59N 51°16' E 004°22'0 0.0
2017-Nov-02 01:29N 51°16' E 004°22'0 0.0
2017-Nov-02 00:59N 51°16' E 004°22'0 0.0
2017-Nov-02 00:29N 51°16' E 004°22'0 1.0
2017-Nov-01 23:59N 51°16' E 004°21'1 2.9
2017-Nov-01 23:30N 51°17' E 004°21'2 3.6
2017-Nov-01 22:53N 51°19' E 004°19'0 0.0
2017-Nov-01 22:29N 51°19' E 004°19'0 0.0
2017-Nov-01 21:59N 51°19' E 004°19'0 0.0
2017-Nov-01 21:29N 51°19' E 004°19'0 0.0
2017-Nov-01 20:59N 51°19' E 004°19'0 0.0
2017-Nov-01 20:29N 51°19' E 004°19'0 0.0
2017-Nov-01 19:59N 51°19' E 004°19'0 0.0
2017-Nov-01 19:29N 51°19' E 004°19'0 0.0
2017-Nov-01 18:59N 51°19' E 004°19'0 0.0
2017-Nov-01 18:29N 51°19' E 004°19'  

Dump ship's entire track history